sensor_id;sensor_type;location;lat;lon;timestamp;pressure;altitude;pressure_sealevel;temperature
27826;BMP280;15077;49.704;9.908;2022-08-21T00:01:21;98213.03;;;25.24
27826;BMP280;15077;49.704;9.908;2022-08-21T00:03:48;98214.97;;;25.22
27826;BMP280;15077;49.704;9.908;2022-08-21T00:06:14;98208.13;;;25.21
27826;BMP280;15077;49.704;9.908;2022-08-21T00:08:40;98204.88;;;25.19
27826;BMP280;15077;49.704;9.908;2022-08-21T00:11:07;98206.81;;;25.17
27826;BMP280;15077;49.704;9.908;2022-08-21T00:13:34;98206.97;;;25.15
27826;BMP280;15077;49.704;9.908;2022-08-21T00:16:03;98198.66;;;25.12
27826;BMP280;15077;49.704;9.908;2022-08-21T00:18:29;98202.22;;;25.11
27826;BMP280;15077;49.704;9.908;2022-08-21T00:20:55;98199.78;;;25.09
27826;BMP280;15077;49.704;9.908;2022-08-21T00:23:22;98193.09;;;25.07
27826;BMP280;15077;49.704;9.908;2022-08-21T00:25:48;98192.31;;;25.06
27826;BMP280;15077;49.704;9.908;2022-08-21T00:28:15;98192.44;;;25.05
27826;BMP280;15077;49.704;9.908;2022-08-21T00:30:42;98189.16;;;25.03
27826;BMP280;15077;49.704;9.908;2022-08-21T00:33:11;98194.66;;;25.00
27826;BMP280;15077;49.704;9.908;2022-08-21T00:35:41;98191.38;;;24.98
27826;BMP280;15077;49.704;9.908;2022-08-21T00:38:08;98186.47;;;24.95
27826;BMP280;15077;49.704;9.908;2022-08-21T00:40:42;98193.75;;;24.91
27826;BMP280;15077;49.704;9.908;2022-08-21T00:43:14;98188.97;;;24.87
27826;BMP280;15077;49.704;9.908;2022-08-21T00:45:40;98187.66;;;24.83
27826;BMP280;15077;49.704;9.908;2022-08-21T00:48:06;98183.72;;;24.79
27826;BMP280;15077;49.704;9.908;2022-08-21T00:50:38;98186.47;;;24.78
27826;BMP280;15077;49.704;9.908;2022-08-21T00:53:06;98179.00;;;24.75
27826;BMP280;15077;49.704;9.908;2022-08-21T00:55:35;98168.91;;;24.72
27826;BMP280;15077;49.704;9.908;2022-08-21T00:58:05;98177.78;;;24.69
27826;BMP280;15077;49.704;9.908;2022-08-21T01:00:38;98179.06;;;24.65
27826;BMP280;15077;49.704;9.908;2022-08-21T01:03:12;98178.53;;;24.62
27826;BMP280;15077;49.704;9.908;2022-08-21T01:05:38;98174.75;;;24.56
27826;BMP280;15077;49.704;9.908;2022-08-21T01:08:07;98188.00;;;24.53
27826;BMP280;15077;49.704;9.908;2022-08-21T01:10:35;98186.66;;;24.49
27826;BMP280;15077;49.704;9.908;2022-08-21T01:13:04;98182.44;;;24.48
27826;BMP280;15077;49.704;9.908;2022-08-21T01:15:35;98181.75;;;24.46
27826;BMP280;15077;49.704;9.908;2022-08-21T01:18:04;98180.97;;;24.46
27826;BMP280;15077;49.704;9.908;2022-08-21T01:20:30;98181.09;;;24.44
27826;BMP280;15077;49.704;9.908;2022-08-21T01:22:56;98175.22;;;24.42
27826;BMP280;15077;49.704;9.908;2022-08-21T01:25:23;98179.75;;;24.41
27826;BMP280;15077;49.704;9.908;2022-08-21T01:27:48;98174.16;;;24.36
27826;BMP280;15077;49.704;9.908;2022-08-21T01:30:23;98171.97;;;24.31
27826;BMP280;15077;49.704;9.908;2022-08-21T01:32:50;98178.28;;;24.29
27826;BMP280;15077;49.704;9.908;2022-08-21T01:35:19;98176.00;;;24.26
27826;BMP280;15077;49.704;9.908;2022-08-21T01:37:47;98176.28;;;24.23
27826;BMP280;15077;49.704;9.908;2022-08-21T01:40:16;98180.63;;;24.22
27826;BMP280;15077;49.704;9.908;2022-08-21T01:42:43;98178.31;;;24.19
27826;BMP280;15077;49.704;9.908;2022-08-21T01:45:11;98176.84;;;24.17
27826;BMP280;15077;49.704;9.908;2022-08-21T01:47:37;98180.38;;;24.16
27826;BMP280;15077;49.704;9.908;2022-08-21T01:50:11;98178.75;;;24.15
27826;BMP280;15077;49.704;9.908;2022-08-21T01:52:37;98174.69;;;24.12
27826;BMP280;15077;49.704;9.908;2022-08-21T01:55:07;98177.41;;;24.11
27826;BMP280;15077;49.704;9.908;2022-08-21T01:57:34;98176.06;;;24.07
27826;BMP280;15077;49.704;9.908;2022-08-21T02:00:00;98167.63;;;24.05
27826;BMP280;15077;49.704;9.908;2022-08-21T02:02:26;98177.44;;;24.01
27826;BMP280;15077;49.704;9.908;2022-08-21T02:04:52;98175.84;;;24.00
27826;BMP280;15077;49.704;9.908;2022-08-21T02:07:18;98170.81;;;23.99
27826;BMP280;15077;49.704;9.908;2022-08-21T02:09:44;98171.88;;;23.96
27826;BMP280;15077;49.704;9.908;2022-08-21T02:12:11;98166.84;;;23.95
27826;BMP280;15077;49.704;9.908;2022-08-21T02:14:38;98170.38;;;23.94
27826;BMP280;15077;49.704;9.908;2022-08-21T02:17:04;98169.72;;;23.92
27826;BMP280;15077;49.704;9.908;2022-08-21T02:19:30;98167.41;;;23.89
27826;BMP280;15077;49.704;9.908;2022-08-21T02:21:56;98165.78;;;23.88
27826;BMP280;15077;49.704;9.908;2022-08-21T02:24:22;98169.59;;;23.84
27826;BMP280;15077;49.704;9.908;2022-08-21T02:26:47;98171.53;;;23.82
27826;BMP280;15077;49.704;9.908;2022-08-21T02:29:13;98170.84;;;23.80
27826;BMP280;15077;49.704;9.908;2022-08-21T02:31:39;98167.56;;;23.78
27826;BMP280;15077;49.704;9.908;2022-08-21T02:34:05;98172.91;;;23.77
27826;BMP280;15077;49.704;9.908;2022-08-21T02:36:31;98173.19;;;23.74
27826;BMP280;15077;49.704;9.908;2022-08-21T02:38:57;98171.56;;;23.73
27826;BMP280;15077;49.704;9.908;2022-08-21T02:41:23;98161.63;;;23.68
27826;BMP280;15077;49.704;9.908;2022-08-21T02:43:49;98160.94;;;23.66
27826;BMP280;15077;49.704;9.908;2022-08-21T02:46:18;98166.38;;;23.63
27826;BMP280;15077;49.704;9.908;2022-08-21T02:48:44;98166.66;;;23.60
27826;BMP280;15077;49.704;9.908;2022-08-21T02:51:17;98171.16;;;23.58
27826;BMP280;15077;49.704;9.908;2022-08-21T02:53:44;98166.53;;;23.52
27826;BMP280;15077;49.704;9.908;2022-08-21T02:56:17;98164.09;;;23.51
27826;BMP280;15077;49.704;9.908;2022-08-21T02:58:51;98166.13;;;23.47
27826;BMP280;15077;49.704;9.908;2022-08-21T03:01:18;98157.97;;;23.42
27826;BMP280;15077;49.704;9.908;2022-08-21T03:03:47;98158.25;;;23.40
27826;BMP280;15077;49.704;9.908;2022-08-21T03:06:19;98168.88;;;23.37
27826;BMP280;15077;49.704;9.908;2022-08-21T03:08:45;98164.78;;;23.34
27826;BMP280;15077;49.704;9.908;2022-08-21T03:11:13;98166.84;;;23.31
27826;BMP280;15077;49.704;9.908;2022-08-21T03:13:39;98164.81;;;23.25
27826;BMP280;15077;49.704;9.908;2022-08-21T03:16:06;98163.16;;;23.24
27826;BMP280;15077;49.704;9.908;2022-08-21T03:18:32;98159.25;;;23.20
27826;BMP280;15077;49.704;9.908;2022-08-21T03:20:58;98161.28;;;23.16
27826;BMP280;15077;49.704;9.908;2022-08-21T03:23:24;98156.50;;;23.12
27826;BMP280;15077;49.704;9.908;2022-08-21T03:25:50;98164.53;;;23.09
27826;BMP280;15077;49.704;9.908;2022-08-21T03:28:20;98168.09;;;23.08
27826;BMP280;15077;49.704;9.908;2022-08-21T03:30:50;98166.75;;;23.04
27826;BMP280;15077;49.704;9.908;2022-08-21T03:33:17;98177.34;;;23.01
27826;BMP280;15077;49.704;9.908;2022-08-21T03:35:45;98181.81;;;22.99
27826;BMP280;15077;49.704;9.908;2022-08-21T03:38:12;98173.66;;;22.94
27826;BMP280;15077;49.704;9.908;2022-08-21T03:40:39;98177.44;;;22.90
27826;BMP280;15077;49.704;9.908;2022-08-21T03:43:05;98173.50;;;22.86
27826;BMP280;15077;49.704;9.908;2022-08-21T03:45:34;98172.94;;;22.83
27826;BMP280;15077;49.704;9.908;2022-08-21T03:48:04;98179.22;;;22.80
27826;BMP280;15077;49.704;9.908;2022-08-21T03:50:34;98174.31;;;22.77
27826;BMP280;15077;49.704;9.908;2022-08-21T03:53:03;98168.72;;;22.72
27826;BMP280;15077;49.704;9.908;2022-08-21T03:55:30;98171.56;;;22.69
27826;BMP280;15077;49.704;9.908;2022-08-21T03:57:56;98172.69;;;22.67
27826;BMP280;15077;49.704;9.908;2022-08-21T04:00:23;98168.59;;;22.64
27826;BMP280;15077;49.704;9.908;2022-08-21T04:02:50;98172.38;;;22.60
27826;BMP280;15077;49.704;9.908;2022-08-21T04:05:18;98182.03;;;22.58
27826;BMP280;15077;49.704;9.908;2022-08-21T04:07:55;98184.06;;;22.55
27826;BMP280;15077;49.704;9.908;2022-08-21T04:10:21;98186.09;;;22.51
27826;BMP280;15077;49.704;9.908;2022-08-21T04:12:47;98195.75;;;22.49
27826;BMP280;15077;49.704;9.908;2022-08-21T04:15:12;98199.53;;;22.45
27826;BMP280;15077;49.704;9.908;2022-08-21T04:17:38;98208.22;;;22.44
27826;BMP280;15077;49.704;9.908;2022-08-21T04:20:05;98209.31;;;22.42
27826;BMP280;15077;49.704;9.908;2022-08-21T04:22:32;98211.34;;;22.39
27826;BMP280;15077;49.704;9.908;2022-08-21T04:24:58;98209.84;;;22.36
27826;BMP280;15077;49.704;9.908;2022-08-21T04:27:24;98217.72;;;22.35
27826;BMP280;15077;49.704;9.908;2022-08-21T04:29:50;98224.78;;;22.33
27826;BMP280;15077;49.704;9.908;2022-08-21T04:32:26;98223.44;;;22.29
27826;BMP280;15077;49.704;9.908;2022-08-21T04:35:03;98223.81;;;22.24
27826;BMP280;15077;49.704;9.908;2022-08-21T04:37:30;98230.03;;;22.22
27826;BMP280;15077;49.704;9.908;2022-08-21T04:39:56;98231.22;;;22.18
27826;BMP280;15077;49.704;9.908;2022-08-21T04:42:26;98231.22;;;22.18
27826;BMP280;15077;49.704;9.908;2022-08-21T04:44:54;98232.44;;;22.14
27826;BMP280;15077;49.704;9.908;2022-08-21T04:47:21;98231.22;;;22.18
27826;BMP280;15077;49.704;9.908;2022-08-21T04:49:47;98238.28;;;22.16
27826;BMP280;15077;49.704;9.908;2022-08-21T04:52:19;98242.75;;;22.14
27826;BMP280;15077;49.704;9.908;2022-08-21T04:54:48;98238.78;;;22.10
27826;BMP280;15077;49.704;9.908;2022-08-21T04:57:18;98237.41;;;22.06
27826;BMP280;15077;49.704;9.908;2022-08-21T04:59:50;98245.28;;;22.04
27826;BMP280;15077;49.704;9.908;2022-08-21T05:02:18;98236.03;;;22.02
27826;BMP280;15077;49.704;9.908;2022-08-21T05:04:51;98240.38;;;22.01
27826;BMP280;15077;49.704;9.908;2022-08-21T05:07:23;98240.88;;;21.95
27826;BMP280;15077;49.704;9.908;2022-08-21T05:09:51;98243.84;;;21.91
27826;BMP280;15077;49.704;9.908;2022-08-21T05:12:17;98251.19;;;21.86
27826;BMP280;15077;49.704;9.908;2022-08-21T05:14:44;98245.44;;;21.83
27826;BMP280;15077;49.704;9.908;2022-08-21T05:17:10;98251.69;;;21.80
27826;BMP280;15077;49.704;9.908;2022-08-21T05:19:36;98251.94;;;21.77
27826;BMP280;15077;49.704;9.908;2022-08-21T05:22:02;98253.81;;;21.75
27826;BMP280;15077;49.704;9.908;2022-08-21T05:24:28;98255.72;;;21.73
27826;BMP280;15077;49.704;9.908;2022-08-21T05:26:54;98252.19;;;21.74
27826;BMP280;15077;49.704;9.908;2022-08-21T05:29:20;98255.03;;;21.71
27826;BMP280;15077;49.704;9.908;2022-08-21T05:31:48;98252.19;;;21.74
27826;BMP280;15077;49.704;9.908;2022-08-21T05:34:19;98258.28;;;21.73
27826;BMP280;15077;49.704;9.908;2022-08-21T05:36:45;98254.91;;;21.73
27826;BMP280;15077;49.704;9.908;2022-08-21T05:39:13;98264.13;;;21.75
27826;BMP280;15077;49.704;9.908;2022-08-21T05:41:38;98264.00;;;21.77
27826;BMP280;15077;49.704;9.908;2022-08-21T05:44:04;98265.66;;;21.78
27826;BMP280;15077;49.704;9.908;2022-08-21T05:46:30;98274.19;;;21.78
27826;BMP280;15077;49.704;9.908;2022-08-21T05:48:56;98264.59;;;21.80
27826;BMP280;15077;49.704;9.908;2022-08-21T05:51:22;98264.19;;;21.85
27826;BMP280;15077;49.704;9.908;2022-08-21T05:53:48;98266.78;;;21.85
27826;BMP280;15077;49.704;9.908;2022-08-21T05:56:14;98266.41;;;21.89
27826;BMP280;15077;49.704;9.908;2022-08-21T05:58:41;98263.69;;;21.91
27826;BMP280;15077;49.704;9.908;2022-08-21T06:01:08;98261.78;;;21.92
27826;BMP280;15077;49.704;9.908;2022-08-21T06:03:39;98257.06;;;21.97
27826;BMP280;15077;49.704;9.908;2022-08-21T06:06:06;98273.13;;;22.01
27826;BMP280;15077;49.704;9.908;2022-08-21T06:08:32;98261.56;;;22.05
27826;BMP280;15077;49.704;9.908;2022-08-21T06:11:00;98263.09;;;22.07
27826;BMP280;15077;49.704;9.908;2022-08-21T06:13:28;98261.06;;;22.11
27826;BMP280;15077;49.704;9.908;2022-08-21T06:16:13;98258.25;;;22.14
27826;BMP280;15077;49.704;9.908;2022-08-21T06:18:39;98262.19;;;22.18
27826;BMP280;15077;49.704;9.908;2022-08-21T06:21:07;98265.25;;;22.23
27826;BMP280;15077;49.704;9.908;2022-08-21T06:23:34;98258.75;;;22.28
27826;BMP280;15077;49.704;9.908;2022-08-21T06:26:06;98268.69;;;22.33
27826;BMP280;15077;49.704;9.908;2022-08-21T06:28:34;98261.50;;;22.36
27826;BMP280;15077;49.704;9.908;2022-08-21T06:31:15;98260.41;;;22.39
27826;BMP280;15077;49.704;9.908;2022-08-21T06:33:41;98260.84;;;22.43
27826;BMP280;15077;49.704;9.908;2022-08-21T06:36:08;98259.63;;;22.47
27826;BMP280;15077;49.704;9.908;2022-08-21T06:38:35;98256.66;;;22.52
27826;BMP280;15077;49.704;9.908;2022-08-21T06:41:02;98262.38;;;22.55
27826;BMP280;15077;49.704;9.908;2022-08-21T06:43:28;98252.59;;;22.59
27826;BMP280;15077;49.704;9.908;2022-08-21T06:45:54;98258.06;;;22.65
27826;BMP280;15077;49.704;9.908;2022-08-21T06:48:20;98262.00;;;22.69
27826;BMP280;15077;49.704;9.908;2022-08-21T06:50:47;98259.72;;;22.76
27826;BMP280;15077;49.704;9.908;2022-08-21T06:53:17;98260.00;;;22.82
27826;BMP280;15077;49.704;9.908;2022-08-21T06:55:44;98266.41;;;22.88
27826;BMP280;15077;49.704;9.908;2022-08-21T06:58:11;98261.41;;;22.95
27826;BMP280;15077;49.704;9.908;2022-08-21T07:00:47;98256.53;;;23.02
27826;BMP280;15077;49.704;9.908;2022-08-21T07:03:21;98260.22;;;23.09
27826;BMP280;15077;49.704;9.908;2022-08-21T07:05:48;98263.09;;;23.15
27826;BMP280;15077;49.704;9.908;2022-08-21T07:08:14;98260.78;;;23.22
27826;BMP280;15077;49.704;9.908;2022-08-21T07:10:40;98262.53;;;23.31
27826;BMP280;15077;49.704;9.908;2022-08-21T07:13:06;98257.63;;;23.37
27826;BMP280;15077;49.704;9.908;2022-08-21T07:15:32;98261.19;;;23.45
27826;BMP280;15077;49.704;9.908;2022-08-21T07:17:59;98257.09;;;23.52
27826;BMP280;15077;49.704;9.908;2022-08-21T07:20:29;98257.34;;;23.59
27826;BMP280;15077;49.704;9.908;2022-08-21T07:22:59;98260.13;;;23.67
27826;BMP280;15077;49.704;9.908;2022-08-21T07:25:26;98261.16;;;23.74
27826;BMP280;15077;49.704;9.908;2022-08-21T07:27:53;98251.09;;;23.80
27826;BMP280;15077;49.704;9.908;2022-08-21T07:30:19;98261.41;;;23.90
27826;BMP280;15077;49.704;9.908;2022-08-21T07:32:45;98262.50;;;23.96
27826;BMP280;15077;49.704;9.908;2022-08-21T07:35:11;98254.03;;;24.04
27826;BMP280;15077;49.704;9.908;2022-08-21T07:37:37;98257.69;;;24.11
27826;BMP280;15077;49.704;9.908;2022-08-21T07:40:04;98258.59;;;24.19
27826;BMP280;15077;49.704;9.908;2022-08-21T07:42:30;98253.97;;;24.23
27826;BMP280;15077;49.704;9.908;2022-08-21T07:44:56;98251.47;;;24.31
27826;BMP280;15077;49.704;9.908;2022-08-21T07:47:22;98242.38;;;24.36
27826;BMP280;15077;49.704;9.908;2022-08-21T07:49:48;98244.38;;;24.42
27826;BMP280;15077;49.704;9.908;2022-08-21T07:52:14;98236.97;;;24.47
27826;BMP280;15077;49.704;9.908;2022-08-21T07:54:40;98240.50;;;24.55
27826;BMP280;15077;49.704;9.908;2022-08-21T07:57:06;98237.19;;;24.63
27826;BMP280;15077;49.704;9.908;2022-08-21T07:59:32;98237.53;;;24.68
27826;BMP280;15077;49.704;9.908;2022-08-21T08:01:57;98235.22;;;24.74
27826;BMP280;15077;49.704;9.908;2022-08-21T08:04:24;98237.22;;;24.80
27826;BMP280;15077;49.704;9.908;2022-08-21T08:06:50;98230.47;;;24.87
27826;BMP280;15077;49.704;9.908;2022-08-21T08:09:15;98229.91;;;24.93
27826;BMP280;15077;49.704;9.908;2022-08-21T08:11:43;98230.16;;;24.99
27826;BMP280;15077;49.704;9.908;2022-08-21T08:14:10;98222.59;;;25.06
27826;BMP280;15077;49.704;9.908;2022-08-21T08:16:36;98227.19;;;25.12
27826;BMP280;15077;49.704;9.908;2022-08-21T08:19:02;98217.72;;;25.20
27826;BMP280;15077;49.704;9.908;2022-08-21T08:21:28;98223.25;;;25.25
27826;BMP280;15077;49.704;9.908;2022-08-21T08:23:54;98216.66;;;25.31
27826;BMP280;15077;49.704;9.908;2022-08-21T08:26:20;98217.69;;;25.38
27826;BMP280;15077;49.704;9.908;2022-08-21T08:28:46;98216.28;;;25.43
27826;BMP280;15077;49.704;9.908;2022-08-21T08:31:14;98217.16;;;25.51
27826;BMP280;15077;49.704;9.908;2022-08-21T08:33:40;98213.78;;;25.59
27826;BMP280;15077;49.704;9.908;2022-08-21T08:36:12;98203.53;;;25.67
27826;BMP280;15077;49.704;9.908;2022-08-21T08:38:39;98213.13;;;25.74
27826;BMP280;15077;49.704;9.908;2022-08-21T08:41:19;98209.63;;;25.83
27826;BMP280;15077;49.704;9.908;2022-08-21T08:43:57;98211.31;;;25.92
27826;BMP280;15077;49.704;9.908;2022-08-21T08:46:42;98208.25;;;25.96
27826;BMP280;15077;49.704;9.908;2022-08-21T08:49:39;98208.44;;;26.03
27826;BMP280;15077;49.704;9.908;2022-08-21T08:54:55;98209.25;;;26.29
27826;BMP280;15077;49.704;9.908;2022-08-21T08:57:24;98208.31;;;26.38
27826;BMP280;15077;49.704;9.908;2022-08-21T08:59:59;98204.31;;;26.51
27826;BMP280;15077;49.704;9.908;2022-08-21T09:02:26;98209.03;;;26.63
27826;BMP280;15077;49.704;9.908;2022-08-21T09:04:55;98204.88;;;26.78
27826;BMP280;15077;49.704;9.908;2022-08-21T09:10:38;98194.06;;;27.06
27826;BMP280;15077;49.704;9.908;2022-08-21T09:13:22;98196.00;;;27.20
27826;BMP280;15077;49.704;9.908;2022-08-21T09:19:02;98198.44;;;27.45
27826;BMP280;15077;49.704;9.908;2022-08-21T09:21:53;98181.72;;;27.56
27826;BMP280;15077;49.704;9.908;2022-08-21T09:27:23;98183.81;;;27.84
27826;BMP280;15077;49.704;9.908;2022-08-21T09:29:54;98188.66;;;27.95
27826;BMP280;15077;49.704;9.908;2022-08-21T09:32:30;98191.88;;;28.05
27826;BMP280;15077;49.704;9.908;2022-08-21T09:35:13;98184.22;;;28.11
27826;BMP280;15077;49.704;9.908;2022-08-21T09:38:23;98187.81;;;28.02
27826;BMP280;15077;49.704;9.908;2022-08-21T09:40:59;98191.19;;;28.27
27826;BMP280;15077;49.704;9.908;2022-08-21T09:43:26;98188.19;;;28.38
27826;BMP280;15077;49.704;9.908;2022-08-21T09:46:19;98187.88;;;28.40
27826;BMP280;15077;49.704;9.908;2022-08-21T09:48:55;98186.84;;;28.49
27826;BMP280;15077;49.704;9.908;2022-08-21T09:51:50;98184.41;;;28.48
27826;BMP280;15077;49.704;9.908;2022-08-21T09:54:20;98176.38;;;28.57
27826;BMP280;15077;49.704;9.908;2022-08-21T09:57:14;98185.31;;;28.63
27826;BMP280;15077;49.704;9.908;2022-08-21T10:02:45;98183.59;;;28.86
27826;BMP280;15077;49.704;9.908;2022-08-21T10:05:25;98174.53;;;28.96
27826;BMP280;15077;49.704;9.908;2022-08-21T10:07:51;98175.75;;;29.08
27826;BMP280;15077;49.704;9.908;2022-08-21T10:10:23;98174.19;;;29.21
27826;BMP280;15077;49.704;9.908;2022-08-21T10:16:13;98166.53;;;29.42
27826;BMP280;15077;49.704;9.908;2022-08-21T10:18:57;98156.28;;;29.55
27826;BMP280;15077;49.704;9.908;2022-08-21T10:21:58;98162.63;;;29.60
27826;BMP280;15077;49.704;9.908;2022-08-21T10:24:38;98155.59;;;29.75
27826;BMP280;15077;49.704;9.908;2022-08-21T10:30:02;98144.91;;;29.99
27826;BMP280;15077;49.704;9.908;2022-08-21T10:35:33;98163.38;;;30.12
27826;BMP280;15077;49.704;9.908;2022-08-21T10:38:55;98152.28;;;30.10
27826;BMP280;15077;49.704;9.908;2022-08-21T10:44:49;98141.88;;;30.31
27826;BMP280;15077;49.704;9.908;2022-08-21T10:47:42;98141.28;;;30.43
27826;BMP280;15077;49.704;9.908;2022-08-21T10:50:32;98142.41;;;30.55
27826;BMP280;15077;49.704;9.908;2022-08-21T10:53:16;98138.13;;;30.68
27826;BMP280;15077;49.704;9.908;2022-08-21T11:02:21;98130.53;;;30.73
27826;BMP280;15077;49.704;9.908;2022-08-21T11:08:02;98114.88;;;30.94
27826;BMP280;15077;49.704;9.908;2022-08-21T11:10:46;98116.78;;;31.06
27826;BMP280;15077;49.704;9.908;2022-08-21T11:13:26;98117.91;;;31.18
27826;BMP280;15077;49.704;9.908;2022-08-21T11:21:56;98109.00;;;31.40
27826;BMP280;15077;49.704;9.908;2022-08-21T11:28:33;98110.13;;;31.52
27826;BMP280;15077;49.704;9.908;2022-08-21T11:37:05;98101.16;;;31.67
27826;BMP280;15077;49.704;9.908;2022-08-21T11:43:40;98092.75;;;31.78
27826;BMP280;15077;49.704;9.908;2022-08-21T11:51:55;98077.16;;;32.04
27826;BMP280;15077;49.704;9.908;2022-08-21T11:57:15;98081.25;;;32.13
27826;BMP280;15077;49.704;9.908;2022-08-21T12:02:50;98084.56;;;32.28
27826;BMP280;15077;49.704;9.908;2022-08-21T12:05:36;98086.16;;;32.29
27826;BMP280;15077;49.704;9.908;2022-08-21T12:08:25;98087.38;;;32.33
27826;BMP280;15077;49.704;9.908;2022-08-21T12:16:38;98088.16;;;32.27
27826;BMP280;15077;49.704;9.908;2022-08-21T12:24:37;98082.88;;;32.20
27826;BMP280;15077;49.704;9.908;2022-08-21T12:27:30;98073.75;;;32.10
27826;BMP280;15077;49.704;9.908;2022-08-21T12:33:03;98073.16;;;32.08
27826;BMP280;15077;49.704;9.908;2022-08-21T12:35:40;98069.56;;;32.09
27826;BMP280;15077;49.704;9.908;2022-08-21T12:38:29;98065.09;;;32.03
27826;BMP280;15077;49.704;9.908;2022-08-21T12:41:24;98068.69;;;32.02
27826;BMP280;15077;49.704;9.908;2022-08-21T12:44:10;98072.75;;;32.04
27826;BMP280;15077;49.704;9.908;2022-08-21T12:47:05;98058.63;;;32.05
27826;BMP280;15077;49.704;9.908;2022-08-21T12:49:43;98063.91;;;32.12
27826;BMP280;15077;49.704;9.908;2022-08-21T12:52:22;98067.16;;;32.20
27826;BMP280;15077;49.704;9.908;2022-08-21T12:54:48;98053.28;;;32.26
27826;BMP280;15077;49.704;9.908;2022-08-21T12:57:28;98047.25;;;32.32
27826;BMP280;15077;49.704;9.908;2022-08-21T12:59:58;98050.25;;;32.42
27826;BMP280;15077;49.704;9.908;2022-08-21T13:02:31;98046.47;;;32.51
27826;BMP280;15077;49.704;9.908;2022-08-21T13:05:06;98053.34;;;32.58
27826;BMP280;15077;49.704;9.908;2022-08-21T13:07:35;98051.16;;;32.68
27826;BMP280;15077;49.704;9.908;2022-08-21T13:10:19;98047.31;;;32.77
27826;BMP280;15077;49.704;9.908;2022-08-21T13:12:47;98045.50;;;32.90
27826;BMP280;15077;49.704;9.908;2022-08-21T13:15:14;98042.94;;;32.97
27826;BMP280;15077;49.704;9.908;2022-08-21T13:17:47;98042.72;;;33.05
27826;BMP280;15077;49.704;9.908;2022-08-21T13:20:29;98045.31;;;33.11
27826;BMP280;15077;49.704;9.908;2022-08-21T13:22:55;98042.72;;;33.18
27826;BMP280;15077;49.704;9.908;2022-08-21T13:25:29;98032.19;;;33.24
27826;BMP280;15077;49.704;9.908;2022-08-21T13:28:11;98041.28;;;33.28
27826;BMP280;15077;49.704;9.908;2022-08-21T13:30:49;98032.19;;;33.31
27826;BMP280;15077;49.704;9.908;2022-08-21T13:33:20;98031.78;;;33.34
27826;BMP280;15077;49.704;9.908;2022-08-21T13:36:05;98042.28;;;33.34
27826;BMP280;15077;49.704;9.908;2022-08-21T13:38:35;98041.47;;;33.39
27826;BMP280;15077;49.704;9.908;2022-08-21T13:41:11;98042.47;;;33.45
27826;BMP280;15077;49.704;9.908;2022-08-21T13:43:48;98035.22;;;33.47
27826;BMP280;15077;49.704;9.908;2022-08-21T13:46:15;98036.59;;;33.49
27826;BMP280;15077;49.704;9.908;2022-08-21T13:48:42;98038.41;;;33.55
27826;BMP280;15077;49.704;9.908;2022-08-21T13:51:09;98037.00;;;33.59
27826;BMP280;15077;49.704;9.908;2022-08-21T13:56:08;98032.94;;;33.63
27826;BMP280;15077;49.704;9.908;2022-08-21T13:58:45;98028.69;;;33.62
27826;BMP280;15077;49.704;9.908;2022-08-21T14:01:32;98025.69;;;33.59
27826;BMP280;15077;49.704;9.908;2022-08-21T14:04:22;98030.72;;;33.60
27826;BMP280;15077;49.704;9.908;2022-08-21T14:06:50;98029.88;;;33.73
27826;BMP280;15077;49.704;9.908;2022-08-21T14:09:33;98027.25;;;33.79
27826;BMP280;15077;49.704;9.908;2022-08-21T14:12:14;98028.00;;;33.86
27826;BMP280;15077;49.704;9.908;2022-08-21T14:14:42;98020.13;;;33.92
27826;BMP280;15077;49.704;9.908;2022-08-21T14:17:31;98022.72;;;33.99
27826;BMP280;15077;49.704;9.908;2022-08-21T14:19:57;98028.34;;;34.09
27826;BMP280;15077;49.704;9.908;2022-08-21T14:22:40;98029.13;;;34.16
27826;BMP280;15077;49.704;9.908;2022-08-21T14:25:44;98020.84;;;34.12
27826;BMP280;15077;49.704;9.908;2022-08-21T14:28:47;98025.44;;;34.23
27826;BMP280;15077;49.704;9.908;2022-08-21T14:31:21;98026.19;;;34.30
27826;BMP280;15077;49.704;9.908;2022-08-21T14:33:49;98023.31;;;34.38
27826;BMP280;15077;49.704;9.908;2022-08-21T14:36:16;98020.88;;;34.43
27826;BMP280;15077;49.704;9.908;2022-08-21T14:38:42;98022.88;;;34.47
27826;BMP280;15077;49.704;9.908;2022-08-21T14:41:18;98021.44;;;34.51
27826;BMP280;15077;49.704;9.908;2022-08-21T14:43:47;98016.34;;;34.56
27826;BMP280;15077;49.704;9.908;2022-08-21T14:46:26;98016.75;;;34.53
27826;BMP280;15077;49.704;9.908;2022-08-21T14:48:52;98009.66;;;34.54
27826;BMP280;15077;49.704;9.908;2022-08-21T14:51:18;98006.81;;;34.55
27826;BMP280;15077;49.704;9.908;2022-08-21T14:53:45;98008.00;;;34.59
27826;BMP280;15077;49.704;9.908;2022-08-21T14:56:12;98007.16;;;34.65
27826;BMP280;15077;49.704;9.908;2022-08-21T14:58:47;98006.28;;;34.71
27826;BMP280;15077;49.704;9.908;2022-08-21T15:01:16;98001.22;;;34.76
27826;BMP280;15077;49.704;9.908;2022-08-21T15:03:45;97999.16;;;34.78
27826;BMP280;15077;49.704;9.908;2022-08-21T15:06:12;97995.09;;;34.82
27826;BMP280;15077;49.704;9.908;2022-08-21T15:08:38;97989.81;;;34.82
27826;BMP280;15077;49.704;9.908;2022-08-21T15:11:05;97989.59;;;34.84
27826;BMP280;15077;49.704;9.908;2022-08-21T15:13:32;97982.13;;;34.81
27826;BMP280;15077;49.704;9.908;2022-08-21T15:15:59;97989.41;;;34.79
27826;BMP280;15077;49.704;9.908;2022-08-21T15:18:28;97994.31;;;34.75
27826;BMP280;15077;49.704;9.908;2022-08-21T15:20:55;97987.44;;;34.74
27826;BMP280;15077;49.704;9.908;2022-08-21T15:23:21;97984.38;;;34.77
27826;BMP280;15077;49.704;9.908;2022-08-21T15:25:49;97980.94;;;34.77
27826;BMP280;15077;49.704;9.908;2022-08-21T15:28:17;97982.78;;;34.76
27826;BMP280;15077;49.704;9.908;2022-08-21T15:30:45;97992.28;;;34.77
27826;BMP280;15077;49.704;9.908;2022-08-21T15:33:11;97980.94;;;34.77
27826;BMP280;15077;49.704;9.908;2022-08-21T15:35:38;97980.16;;;34.76
27826;BMP280;15077;49.704;9.908;2022-08-21T15:38:05;97974.06;;;34.76
27826;BMP280;15077;49.704;9.908;2022-08-21T15:40:31;97972.25;;;34.76
27826;BMP280;15077;49.704;9.908;2022-08-21T15:43:02;97969.19;;;34.79
27826;BMP280;15077;49.704;9.908;2022-08-21T15:45:30;97970.78;;;34.80
27826;BMP280;15077;49.704;9.908;2022-08-21T15:47:56;97971.38;;;34.82
27826;BMP280;15077;49.704;9.908;2022-08-21T15:50:24;97969.75;;;34.81
27826;BMP280;15077;49.704;9.908;2022-08-21T15:52:51;97969.19;;;34.79
27826;BMP280;15077;49.704;9.908;2022-08-21T15:55:17;97966.75;;;34.78